Time;durP1;ratioP1;P1;durP2;ratioP2;P2;SDS_P1;SDS_P2;PMS_P1;PMS_P2;Temp;Humidity;BMP_temperature;BMP_pressure;BME280_temperature;BME280_humidity;BME280_pressure;Samples;Min_cycle;Max_cycle;Signal;HPM_P1;HPM_P2
2023/03/31 00:00:40;;;;;;;44.28;26.30;;;;;;;;;;6292645;28;20023;-76
2023/03/31 00:03:42;;;;;;;35.40;22.13;;;;;;;;;;6291646;28;20107;-76
2023/03/31 00:06:42;;;;;;;33.25;22.58;;;;;;;;;;6282232;28;20020;-76
2023/03/31 00:09:45;;;;;;;40.43;22.57;;;;;;;;;;6291320;28;20027;-76
2023/03/31 00:12:46;;;;;;;35.25;22.05;;;;;;;;;;6292485;28;20040;-76
2023/03/31 00:15:46;;;;;;;26.80;17.67;;;;;;;;;;6273209;28;20025;-76
2023/03/31 00:18:49;;;;;;;32.73;20.57;;;;;;;;;;6287161;28;20021;-76
2023/03/31 00:21:53;;;;;;;29.20;19.15;;;;;;;;;;6285701;28;20494;-76
2023/03/31 00:24:53;;;;;;;29.73;16.08;;;;;;;;;;6288429;28;20563;-76
2023/03/31 00:27:53;;;;;;;29.00;20.15;;;;;;;;;;6291327;28;20062;-76
2023/03/31 00:30:58;;;;;;;25.10;15.18;;;;;;;;;;6293231;28;20119;-76
2023/03/31 00:33:58;;;;;;;30.95;15.57;;;;;;;;;;6274370;28;20089;-76
2023/03/31 00:37:01;;;;;;;26.53;15.57;;;;;;;;;;6291792;28;20024;-76
2023/03/31 00:40:08;;;;;;;27.30;16.40;;;;;;;;;;6293571;28;20028;-76
2023/03/31 00:43:18;;;;;;;28.05;17.80;;;;;;;;;;6291378;28;20025;-76
2023/03/31 00:46:20;;;;;;;24.25;12.40;;;;;;;;;;6285930;28;20034;-76
2023/03/31 00:49:20;;;;;;;;;;;;;;;;;;6283769;28;20035;-76
2023/03/31 00:52:22;;;;;;;34.95;20.38;;;;;;;;;;6286077;28;19995;-76
2023/03/31 00:55:26;;;;;;;34.45;22.05;;;;;;;;;;6286388;28;20016;-76
2023/03/31 00:58:27;;;;;;;35.33;22.00;;;;;;;;;;6273620;28;20029;-75
2023/03/31 01:01:29;;;;;;;30.73;19.50;;;;;;;;;;6274800;28;20544;-75
2023/03/31 01:04:40;;;;;;;32.33;20.05;;;;;;;;;;6293160;28;20063;-75
2023/03/31 01:07:42;;;;;;;29.87;18.37;;;;;;;;;;6289479;28;20431;-76
2023/03/31 01:10:45;;;;;;;25.73;16.02;;;;;;;;;;6285386;28;20095;-76
2023/03/31 01:13:49;;;;;;;29.85;18.60;;;;;;;;;;6281802;28;20032;-76
2023/03/31 01:16:52;;;;;;;35.03;21.00;;;;;;;;;;6287608;28;20676;-76
2023/03/31 01:19:53;;;;;;;36.20;20.15;;;;;;;;;;6267738;28;20021;-75
2023/03/31 01:23:12;;;;;;;31.37;21.40;;;;;;;;;;6273243;28;20517;-75
2023/03/31 01:26:21;;;;;;;35.17;21.80;;;;;;;;;;6287040;28;20573;-76
2023/03/31 01:29:40;;;;;;;34.63;21.33;;;;;;;;;;6286475;28;20013;-76
2023/03/31 01:32:59;;;;;;;33.47;19.95;;;;;;;;;;6268740;28;20173;-76
2023/03/31 01:36:00;;;;;;;31.00;20.52;;;;;;;;;;6279886;28;20020;-76
2023/03/31 01:39:03;;;;;;;35.10;20.47;;;;;;;;;;6286605;28;20111;-76
2023/03/31 01:42:12;;;;;;;30.85;18.73;;;;;;;;;;6292091;28;20012;-75
2023/03/31 01:45:23;;;;;;;29.63;18.65;;;;;;;;;;6291830;28;20020;-76
2023/03/31 01:48:32;;;;;;;30.15;19.05;;;;;;;;;;6295082;28;20162;-76
2023/03/31 01:51:47;;;;;;;27.88;17.67;;;;;;;;;;6293026;28;20559;-75
2023/03/31 01:54:50;;;;;;;30.42;17.55;;;;;;;;;;6295261;28;20492;-75
2023/03/31 01:58:05;;;;;;;28.77;16.50;;;;;;;;;;6293394;28;20040;-75
2023/03/31 02:01:18;;;;;;;26.30;18.52;;;;;;;;;;6284978;28;20394;-76
2023/03/31 02:04:21;;;;;;;27.23;17.83;;;;;;;;;;6285302;28;20021;-75
2023/03/31 02:07:41;;;;;;;38.03;20.33;;;;;;;;;;6291065;28;20097;-75
2023/03/31 02:10:44;;;;;;;31.48;20.70;;;;;;;;;;6285030;28;20029;-75
2023/03/31 02:13:46;;;;;;;32.72;21.88;;;;;;;;;;6290776;28;20048;-75
2023/03/31 02:16:48;;;;;;;29.88;21.27;;;;;;;;;;6292204;28;20025;-75
2023/03/31 02:19:51;;;;;;;34.53;24.50;;;;;;;;;;6293894;28;20440;-75
2023/03/31 02:22:54;;;;;;;38.08;21.92;;;;;;;;;;6286229;28;20075;-75
2023/03/31 02:25:59;;;;;;;36.35;21.02;;;;;;;;;;6255552;28;1074868;-76
2023/03/31 02:29:00;;;;;;;31.55;21.25;;;;;;;;;;6294104;28;20040;-75
2023/03/31 02:32:08;;;;;;;35.97;21.53;;;;;;;;;;6296751;28;20102;-75
2023/03/31 02:35:10;;;;;;;31.63;21.20;;;;;;;;;;6293896;28;20086;-75
2023/03/31 02:38:11;;;;;;;30.20;18.85;;;;;;;;;;6290111;28;20020;-76
2023/03/31 02:41:11;;;;;;;31.17;20.60;;;;;;;;;;6296010;28;20028;-76
2023/03/31 02:44:12;;;;;;;31.57;20.47;;;;;;;;;;6288064;28;20051;-76
2023/03/31 02:47:13;;;;;;;37.40;21.23;;;;;;;;;;6293657;28;20017;-75
2023/03/31 02:50:13;;;;;;;33.78;19.58;;;;;;;;;;6296078;28;20038;-75
2023/03/31 02:53:19;;;;;;;39.40;22.67;;;;;;;;;;6293027;28;20033;-75
2023/03/31 02:56:38;;;;;;;32.85;20.23;;;;;;;;;;6294836;28;20529;-76
2023/03/31 03:00:03;;;;;;;30.40;19.75;;;;;;;;;;6291417;28;20059;-76
2023/03/31 03:03:10;;;;;;;34.42;21.35;;;;;;;;;;6289201;28;20028;-75
2023/03/31 03:06:12;;;;;;;30.60;18.98;;;;;;;;;;6294964;28;20033;-75
2023/03/31 03:09:39;;;;;;;29.20;20.40;;;;;;;;;;6292791;28;20020;-75
2023/03/31 03:12:44;;;;;;;32.22;20.38;;;;;;;;;;6250724;28;20075;-75
2023/03/31 03:15:55;;;;;;;29.70;17.65;;;;;;;;;;6277321;28;20036;-76
2023/03/31 03:18:59;;;;;;;34.30;21.33;;;;;;;;;;6286158;28;20033;-75
2023/03/31 03:21:59;;;;;;;30.30;19.52;;;;;;;;;;6276203;28;20036;-75
2023/03/31 03:25:00;;;;;;;30.13;16.43;;;;;;;;;;6294125;28;20044;-76
2023/03/31 03:28:00;;;;;;;30.03;17.63;;;;;;;;;;6292346;28;20021;-75
2023/03/31 03:31:00;;;;;;;27.08;16.40;;;;;;;;;;6286640;28;20020;-75
2023/03/31 03:34:00;;;;;;;30.97;18.97;;;;;;;;;;6289909;28;20024;-75
2023/03/31 03:37:01;;;;;;;27.83;17.97;;;;;;;;;;6294043;28;20047;-76
2023/03/31 03:40:01;;;;;;;34.30;21.13;;;;;;;;;;6274554;28;20479;-75
2023/03/31 03:43:01;;;;;;;33.50;20.17;;;;;;;;;;6287288;28;20155;-75
2023/03/31 03:46:01;;;;;;;31.47;19.97;;;;;;;;;;6288068;28;20091;-75
2023/03/31 03:49:02;;;;;;;34.60;22.10;;;;;;;;;;6294288;28;20017;-75
2023/03/31 03:52:02;;;;;;;38.17;22.67;;;;;;;;;;6283214;28;20130;-75
2023/03/31 03:55:04;;;;;;;30.43;20.30;;;;;;;;;;6291578;28;20056;-76
2023/03/31 03:58:04;;;;;;;36.85;25.67;;;;;;;;;;6276345;28;20020;-75
2023/03/31 04:01:05;;;;;;;32.60;19.23;;;;;;;;;;6283984;28;20082;-75
2023/03/31 04:04:05;;;;;;;33.43;20.57;;;;;;;;;;6294071;28;20017;-75
2023/03/31 04:07:05;;;;;;;28.93;19.40;;;;;;;;;;6283200;28;20017;-75
2023/03/31 04:10:06;;;;;;;24.23;15.18;;;;;;;;;;6289278;28;20639;-75
2023/03/31 04:13:07;;;;;;;24.27;14.70;;;;;;;;;;6293247;28;20024;-75
2023/03/31 04:16:07;;;;;;;23.75;15.13;;;;;;;;;;6292047;28;20025;-75
2023/03/31 04:19:10;;;;;;;20.00;13.93;;;;;;;;;;6286519;28;20028;-75
2023/03/31 04:22:10;;;;;;;20.00;12.90;;;;;;;;;;6292692;28;20025;-75
2023/03/31 04:25:16;;;;;;;33.43;21.77;;;;;;;;;;6289231;28;20056;-75
2023/03/31 04:28:16;;;;;;;28.48;17.00;;;;;;;;;;6288808;28;20016;-75
2023/03/31 04:31:25;;;;;;;39.70;21.57;;;;;;;;;;6289061;28;20016;-75
2023/03/31 04:34:33;;;;;;;47.15;24.17;;;;;;;;;;6281773;28;20036;-75
2023/03/31 04:37:33;;;;;;;49.13;25.88;;;;;;;;;;6292447;28;20493;-75
2023/03/31 04:40:34;;;;;;;50.10;24.50;;;;;;;;;;6288886;28;20078;-75
2023/03/31 04:43:35;;;;;;;40.60;20.47;;;;;;;;;;6289380;28;20304;-75
2023/03/31 04:46:36;;;;;;;56.33;26.75;;;;;;;;;;6285116;28;20064;-75
2023/03/31 04:49:36;;;;;;;86.00;44.37;;;;;;;;;;6278396;28;20025;-76
2023/03/31 04:52:37;;;;;;;52.93;26.83;;;;;;;;;;6288759;28;20027;-75
2023/03/31 04:55:37;;;;;;;56.40;25.93;;;;;;;;;;6288271;28;20437;-75
2023/03/31 04:58:38;;;;;;;47.83;24.10;;;;;;;;;;6292650;28;20013;-75
2023/03/31 05:01:38;;;;;;;45.70;23.13;;;;;;;;;;6287903;28;20446;-75
2023/03/31 05:04:38;;;;;;;39.10;21.87;;;;;;;;;;6291265;28;20024;-75
2023/03/31 05:07:38;;;;;;;29.30;17.83;;;;;;;;;;6286267;28;20017;-76
2023/03/31 05:10:38;;;;;;;27.17;15.87;;;;;;;;;;6290587;28;20070;-76
2023/03/31 05:13:39;;;;;;;31.57;16.20;;;;;;;;;;6282359;28;20025;-76
2023/03/31 05:16:40;;;;;;;30.37;16.87;;;;;;;;;;6289545;28;20042;-76
2023/03/31 05:19:41;;;;;;;30.67;16.88;;;;;;;;;;6291209;28;20021;-76
2023/03/31 05:22:41;;;;;;;25.73;15.23;;;;;;;;;;6279450;28;20035;-76
2023/03/31 05:25:42;;;;;;;26.23;15.73;;;;;;;;;;6292365;28;20053;-76
2023/03/31 05:28:42;;;;;;;24.35;14.35;;;;;;;;;;6288327;28;20044;-76
2023/03/31 05:31:43;;;;;;;24.47;13.73;;;;;;;;;;6281643;28;20029;-76
2023/03/31 05:34:43;;;;;;;22.73;13.00;;;;;;;;;;6283797;28;20020;-76
2023/03/31 05:37:43;;;;;;;20.08;10.52;;;;;;;;;;6286611;28;20039;-76
2023/03/31 05:40:43;;;;;;;22.17;11.93;;;;;;;;;;6286986;28;20021;-76
2023/03/31 05:43:44;;;;;;;17.00;11.18;;;;;;;;;;6288284;28;20111;-76
2023/03/31 05:46:44;;;;;;;20.70;9.67;;;;;;;;;;6289730;28;20024;-76
2023/03/31 05:49:44;;;;;;;17.93;8.60;;;;;;;;;;6288981;28;20033;-76
2023/03/31 05:52:45;;;;;;;17.97;10.53;;;;;;;;;;6287545;28;20432;-76
2023/03/31 05:55:46;;;;;;;13.50;8.00;;;;;;;;;;6290816;28;20020;-76
2023/03/31 05:58:46;;;;;;;17.27;8.93;;;;;;;;;;6287762;28;20091;-76
2023/03/31 06:01:46;;;;;;;13.47;8.57;;;;;;;;;;6283043;28;20032;-76
2023/03/31 06:04:47;;;;;;;16.30;9.73;;;;;;;;;;6289639;28;20025;-76
2023/03/31 06:07:47;;;;;;;16.87;8.93;;;;;;;;;;6281281;28;20078;-77
2023/03/31 06:10:47;;;;;;;17.08;10.52;;;;;;;;;;6288373;28;20017;-76
2023/03/31 06:13:48;;;;;;;13.23;8.40;;;;;;;;;;6287671;28;20475;-76
2023/03/31 06:16:48;;;;;;;12.77;7.30;;;;;;;;;;6285540;28;20104;-76
2023/03/31 06:19:48;;;;;;;22.30;8.33;;;;;;;;;;6282049;28;20107;-76
2023/03/31 06:22:48;;;;;;;14.70;7.53;;;;;;;;;;6288580;28;20473;-77
2023/03/31 06:25:50;;;;;;;14.13;7.55;;;;;;;;;;6253999;28;20046;-76
2023/03/31 06:28:50;;;;;;;14.27;6.93;;;;;;;;;;6268564;28;20021;-76
2023/03/31 06:31:51;;;;;;;14.60;7.90;;;;;;;;;;6265851;28;20016;-76
2023/03/31 06:34:51;;;;;;;17.17;7.33;;;;;;;;;;6265158;28;20275;-76
2023/03/31 06:37:51;;;;;;;9.77;6.57;;;;;;;;;;6270279;28;20605;-76
2023/03/31 06:40:52;;;;;;;16.70;6.97;;;;;;;;;;6270729;28;20474;-76
2023/03/31 06:43:52;;;;;;;12.83;7.30;;;;;;;;;;6268283;28;20067;-76
2023/03/31 06:46:52;;;;;;;12.77;6.68;;;;;;;;;;6263632;28;20585;-76
2023/03/31 06:49:52;;;;;;;13.60;7.60;;;;;;;;;;6266447;28;20021;-76
2023/03/31 06:52:54;;;;;;;8.37;5.00;;;;;;;;;;6269204;28;20597;-76
2023/03/31 06:55:54;;;;;;;;;;;;;;;;;;6270689;28;20055;-76
2023/03/31 06:58:54;;;;;;;13.23;6.20;;;;;;;;;;6263138;28;19917;-76
2023/03/31 07:01:54;;;;;;;10.53;5.60;;;;;;;;;;6269914;28;20056;-76
2023/03/31 07:04:54;;;;;;;9.50;5.33;;;;;;;;;;6268624;28;20051;-76
2023/03/31 07:07:55;;;;;;;8.80;4.70;;;;;;;;;;6269950;28;20067;-76
2023/03/31 07:10:56;;;;;;;10.65;5.20;;;;;;;;;;6270067;28;20054;-76
2023/03/31 07:13:56;;;;;;;10.02;5.45;;;;;;;;;;6262377;28;20060;-76
2023/03/31 07:16:57;;;;;;;7.90;4.27;;;;;;;;;;6264366;28;20403;-77
2023/03/31 07:19:57;;;;;;;11.50;5.50;;;;;;;;;;6267899;28;20131;-76
2023/03/31 07:22:57;;;;;;;10.33;5.30;;;;;;;;;;6266704;28;20283;-77
2023/03/31 07:26:01;;;;;;;8.55;4.30;;;;;;;;;;6279863;28;20036;-76
2023/03/31 07:29:01;;;;;;;12.15;5.03;;;;;;;;;;6288994;28;20074;-77
2023/03/31 07:32:01;;;;;;;9.50;3.77;;;;;;;;;;6293915;28;20096;-76
2023/03/31 07:35:02;;;;;;;10.07;4.10;;;;;;;;;;6292039;28;20116;-77
2023/03/31 07:38:02;;;;;;;15.63;4.97;;;;;;;;;;6291987;28;20160;-76
2023/03/31 07:41:02;;;;;;;11.25;4.65;;;;;;;;;;6292105;28;20027;-77
2023/03/31 07:44:02;;;;;;;7.53;3.73;;;;;;;;;;6294420;28;20051;-76
2023/03/31 07:47:04;;;;;;;7.83;3.93;;;;;;;;;;6276915;28;20028;-76
2023/03/31 07:50:05;;;;;;;8.43;4.22;;;;;;;;;;6287896;28;20032;-76
2023/03/31 07:53:06;;;;;;;8.43;4.43;;;;;;;;;;6286965;28;20482;-76
2023/03/31 07:56:08;;;;;;;6.93;3.40;;;;;;;;;;6284260;28;20023;-76
2023/03/31 07:59:08;;;;;;;11.13;5.05;;;;;;;;;;6261030;28;20597;-77
2023/03/31 08:02:12;;;;;;;8.45;3.85;;;;;;;;;;6287323;28;20051;-76
2023/03/31 08:05:14;;;;;;;12.38;4.63;;;;;;;;;;6279555;28;20060;-77
2023/03/31 08:08:14;;;;;;;;;;;;;;;;;;6291379;28;20020;-76
2023/03/31 08:11:15;;;;;;;8.40;3.83;;;;;;;;;;6282943;28;19997;-77
2023/03/31 08:14:15;;;;;;;8.65;4.32;;;;;;;;;;6287248;28;20427;-76
2023/03/31 08:17:15;;;;;;;7.60;3.93;;;;;;;;;;6293900;28;20029;-76
2023/03/31 08:20:15;;;;;;;7.90;3.53;;;;;;;;;;6293501;28;20033;-77
2023/03/31 08:23:16;;;;;;;10.87;3.70;;;;;;;;;;6291528;28;20031;-76
2023/03/31 08:26:17;;;;;;;9.00;3.25;;;;;;;;;;6292684;28;20134;-76
2023/03/31 08:29:17;;;;;;;6.78;3.35;;;;;;;;;;6290114;28;20020;-76
2023/03/31 08:32:21;;;;;;;7.30;3.60;;;;;;;;;;6284516;28;20024;-76
2023/03/31 08:35:21;;;;;;;10.20;4.30;;;;;;;;;;6285861;28;20028;-76
2023/03/31 08:38:22;;;;;;;10.20;4.00;;;;;;;;;;6288149;28;20474;-76
2023/03/31 08:41:22;;;;;;;;;;;;;;;;;;6282131;28;20028;-76
2023/03/31 08:44:23;;;;;;;9.02;4.15;;;;;;;;;;6288675;28;20007;-76
2023/03/31 08:47:25;;;;;;;14.17;5.60;;;;;;;;;;6290783;28;20382;-76
2023/03/31 08:50:33;;;;;;;8.45;2.80;;;;;;;;;;6290725;28;20471;-76
2023/03/31 08:53:36;;;;;;;14.45;4.70;;;;;;;;;;6291452;28;20505;-76
2023/03/31 08:56:39;;;;;;;8.57;2.95;;;;;;;;;;6278815;28;20491;-76
2023/03/31 08:59:42;;;;;;;12.68;3.83;;;;;;;;;;6290342;28;20025;-76
2023/03/31 09:02:49;;;;;;;9.38;4.13;;;;;;;;;;6290003;28;20449;-76
2023/03/31 09:05:52;;;;;;;8.60;3.20;;;;;;;;;;6268728;28;20117;-76
2023/03/31 09:08:53;;;;;;;7.00;2.63;;;;;;;;;;6286316;28;20127;-76
2023/03/31 09:11:55;;;;;;;8.40;4.43;;;;;;;;;;6284587;28;20058;-76
2023/03/31 09:15:00;;;;;;;9.98;3.28;;;;;;;;;;6271849;28;20078;-76
2023/03/31 09:18:06;;;;;;;6.00;3.10;;;;;;;;;;6283768;28;20572;-77
2023/03/31 09:21:18;;;;;;;9.30;2.85;;;;;;;;;;6280224;28;20032;-76
2023/03/31 09:24:22;;;;;;;7.75;2.30;;;;;;;;;;6290843;28;20060;-77
2023/03/31 09:27:25;;;;;;;5.78;2.45;;;;;;;;;;6284308;28;20085;-76
2023/03/31 09:30:26;;;;;;;10.18;2.28;;;;;;;;;;6288954;28;20020;-76
2023/03/31 09:33:30;;;;;;;;;;;;;;;;;;6283367;28;20052;-76
2023/03/31 09:36:32;;;;;;;5.13;1.58;;;;;;;;;;6279304;28;19912;-76
2023/03/31 09:39:32;;;;;;;8.70;2.33;;;;;;;;;;6279978;28;20517;-76
2023/03/31 09:42:36;;;;;;;6.53;1.77;;;;;;;;;;6283364;28;20028;-76
2023/03/31 09:45:36;;;;;;;7.90;2.45;;;;;;;;;;6291134;28;20024;-76
2023/03/31 09:48:37;;;;;;;5.22;2.40;;;;;;;;;;6264508;28;20478;-76
2023/03/31 09:51:40;;;;;;;6.35;2.90;;;;;;;;;;6289635;28;20078;-76
2023/03/31 09:54:43;;;;;;;9.55;2.60;;;;;;;;;;6288255;28;20051;-76
2023/03/31 09:57:44;;;;;;;5.55;2.10;;;;;;;;;;6291447;28;20110;-76
2023/03/31 10:00:56;;;;;;;9.13;2.80;;;;;;;;;;6284230;28;20028;-77
2023/03/31 10:03:57;;;;;;;8.20;1.85;;;;;;;;;;6285608;28;20048;-76
2023/03/31 10:06:58;;;;;;;2.90;1.20;;;;;;;;;;6289874;28;20021;-76
2023/03/31 10:10:00;;;;;;;5.25;1.90;;;;;;;;;;6292622;28;20020;-76
2023/03/31 10:13:02;;;;;;;9.73;2.10;;;;;;;;;;6285543;28;20029;-77
2023/03/31 10:16:07;;;;;;;5.05;2.17;;;;;;;;;;6288502;28;20040;-76
2023/03/31 10:19:18;;;;;;;5.75;2.20;;;;;;;;;;6293367;28;20017;-76
2023/03/31 10:22:18;;;;;;;;;;;;;;;;;;6290505;28;20043;-76
2023/03/31 10:25:26;;;;;;;6.20;2.15;;;;;;;;;;6293292;28;20445;-76
2023/03/31 10:28:29;;;;;;;4.05;2.20;;;;;;;;;;6291056;28;20028;-76
2023/03/31 10:31:34;;;;;;;5.72;1.67;;;;;;;;;;6288086;28;20016;-76
2023/03/31 10:34:38;;;;;;;4.97;3.10;;;;;;;;;;6288334;28;20028;-76
2023/03/31 10:37:38;;;;;;;5.45;2.20;;;;;;;;;;6288341;28;20024;-76
2023/03/31 10:40:40;;;;;;;6.77;1.87;;;;;;;;;;6291814;28;20456;-76
2023/03/31 10:43:47;;;;;;;7.00;2.33;;;;;;;;;;6285308;28;20457;-76
2023/03/31 10:46:48;;;;;;;7.40;3.00;;;;;;;;;;6288299;28;20020;-76
2023/03/31 10:49:54;;;;;;;11.02;3.30;;;;;;;;;;6289442;28;20013;-76
2023/03/31 10:53:00;;;;;;;10.55;2.97;;;;;;;;;;6292860;28;20471;-76
2023/03/31 10:56:12;;;;;;;6.90;2.50;;;;;;;;;;6288394;28;20029;-76
2023/03/31 10:59:16;;;;;;;8.35;2.58;;;;;;;;;;6283786;28;20479;-76
2023/03/31 11:02:35;;;;;;;9.77;2.67;;;;;;;;;;6288350;28;20048;-76
2023/03/31 11:05:35;;;;;;;9.32;3.83;;;;;;;;;;6279833;28;20031;-76
2023/03/31 11:08:41;;;;;;;6.97;2.60;;;;;;;;;;6288693;28;20379;-76
2023/03/31 11:11:48;;;;;;;5.90;2.17;;;;;;;;;;6289077;28;20032;-76
2023/03/31 11:14:48;;;;;;;10.63;2.60;;;;;;;;;;6288742;28;20027;-76
2023/03/31 11:17:54;;;;;;;2.87;1.93;;;;;;;;;;6287537;28;20024;-76
2023/03/31 11:21:06;;;;;;;8.57;3.22;;;;;;;;;;6292677;28;20073;-76
2023/03/31 11:24:06;;;;;;;;;;;;;;;;;;6292410;28;20029;-76
2023/03/31 11:27:12;;;;;;;6.45;2.42;;;;;;;;;;6288276;28;20297;-76
2023/03/31 11:30:19;;;;;;;6.18;2.55;;;;;;;;;;6287341;28;20017;-77
2023/03/31 11:33:44;;;;;;;8.57;2.45;;;;;;;;;;6285357;28;20109;-76
2023/03/31 11:36:44;;;;;;;9.25;3.58;;;;;;;;;;6287566;28;20027;-77
2023/03/31 11:39:45;;;;;;;9.05;2.38;;;;;;;;;;6283202;28;20029;-77
2023/03/31 11:42:48;;;;;;;8.23;3.33;;;;;;;;;;6290024;28;20029;-76
2023/03/31 11:45:55;;;;;;;5.72;2.70;;;;;;;;;;6287277;28;20397;-76
2023/03/31 11:49:01;;;;;;;7.25;3.50;;;;;;;;;;6291660;28;20478;-76
2023/03/31 11:52:05;;;;;;;10.68;3.58;;;;;;;;;;6288094;28;20036;-76
2023/03/31 11:55:14;;;;;;;8.93;2.58;;;;;;;;;;6288983;28;20017;-76
2023/03/31 11:58:44;;;;;;;10.02;3.22;;;;;;;;;;6289432;28;20013;-76
2023/03/31 12:01:52;;;;;;;10.27;3.20;;;;;;;;;;6270382;28;20414;-76
2023/03/31 12:04:54;;;;;;;10.43;3.15;;;;;;;;;;6284677;28;20024;-76
2023/03/31 12:07:57;;;;;;;7.28;3.03;;;;;;;;;;6286658;28;20027;-76
2023/03/31 12:11:00;;;;;;;12.20;4.18;;;;;;;;;;6286680;28;20016;-76
2023/03/31 12:14:09;;;;;;;6.38;2.40;;;;;;;;;;6285413;28;20028;-76
2023/03/31 12:17:14;;;;;;;9.32;3.60;;;;;;;;;;6289024;28;20109;-76
2023/03/31 12:20:27;;;;;;;8.25;3.20;;;;;;;;;;6287348;28;20013;-76
2023/03/31 12:23:29;;;;;;;5.10;2.67;;;;;;;;;;6290295;28;20457;-76
2023/03/31 12:26:35;;;;;;;10.45;2.97;;;;;;;;;;6287746;28;20436;-76
2023/03/31 12:29:37;;;;;;;9.07;3.50;;;;;;;;;;6279268;28;20580;-76
2023/03/31 12:32:39;;;;;;;7.97;2.08;;;;;;;;;;6274564;28;20044;-76
2023/03/31 12:35:49;;;;;;;7.63;2.20;;;;;;;;;;6284589;28;20021;-76
2023/03/31 12:39:08;;;;;;;6.60;2.35;;;;;;;;;;6286984;28;20048;-76
2023/03/31 12:42:35;;;;;;;5.82;2.00;;;;;;;;;;6283852;28;20043;-76
2023/03/31 12:45:38;;;;;;;5.45;2.05;;;;;;;;;;6257937;28;20115;-76
2023/03/31 12:48:48;;;;;;;7.03;2.55;;;;;;;;;;6277492;28;20029;-76
2023/03/31 12:51:58;;;;;;;4.57;2.35;;;;;;;;;;6287319;28;20036;-76
2023/03/31 12:55:04;;;;;;;7.13;2.08;;;;;;;;;;6287328;28;20501;-76
2023/03/31 12:58:28;;;;;;;7.40;2.10;;;;;;;;;;6289371;28;20090;-76
2023/03/31 13:01:28;;;;;;;5.32;2.20;;;;;;;;;;6276625;28;20033;-76
2023/03/31 13:04:29;;;;;;;3.57;1.90;;;;;;;;;;6279822;28;20070;-76
2023/03/31 13:07:39;;;;;;;7.70;1.80;;;;;;;;;;6267056;28;20086;-75
2023/03/31 13:10:51;;;;;;;14.68;3.28;;;;;;;;;;6282826;28;20431;-78
2023/03/31 13:13:59;;;;;;;8.57;3.38;;;;;;;;;;6281756;28;20033;-76
2023/03/31 13:17:13;;;;;;;7.25;2.35;;;;;;;;;;6284587;28;20481;-77
2023/03/31 13:20:15;;;;;;;6.20;2.50;;;;;;;;;;6291864;28;20051;-76
2023/03/31 13:23:21;;;;;;;8.40;2.40;;;;;;;;;;6282146;28;20524;-76
2023/03/31 13:26:33;;;;;;;6.05;2.85;;;;;;;;;;6288228;28;20414;-76
2023/03/31 13:29:41;;;;;;;16.25;7.55;;;;;;;;;;6291239;28;20025;-76
2023/03/31 13:33:01;;;;;;;11.07;4.50;;;;;;;;;;6282867;28;20961;-78
2023/03/31 13:36:22;;;;;;;5.03;1.77;;;;;;;;;;6285832;28;20035;-75
2023/03/31 13:39:41;;;;;;;7.65;1.98;;;;;;;;;;6293008;28;20078;-76
2023/03/31 13:42:47;;;;;;;5.72;2.33;;;;;;;;;;6293552;28;20063;-76
2023/03/31 13:46:02;;;;;;;10.32;2.60;;;;;;;;;;6287763;28;20098;-76
2023/03/31 13:49:05;;;;;;;5.63;1.70;;;;;;;;;;6288085;28;20039;-76
2023/03/31 13:52:09;;;;;;;27.35;12.18;;;;;;;;;;6290180;28;20375;-76
2023/03/31 13:55:24;;;;;;;18.65;8.13;;;;;;;;;;6294406;28;20044;-75
2023/03/31 13:58:42;;;;;;;8.55;2.75;;;;;;;;;;6288401;28;20435;-76
2023/03/31 14:01:49;;;;;;;7.03;2.00;;;;;;;;;;6288069;28;20032;-76
2023/03/31 14:04:49;;;;;;;7.63;1.98;;;;;;;;;;6294049;28;20382;-76
2023/03/31 14:07:53;;;;;;;5.23;2.27;;;;;;;;;;6281747;28;20048;-76
2023/03/31 14:11:13;;;;;;;2.72;1.70;;;;;;;;;;6287029;28;20071;-76
2023/03/31 14:14:15;;;;;;;6.63;2.10;;;;;;;;;;6294566;28;20032;-76
2023/03/31 14:17:15;;;;;;;5.38;2.83;;;;;;;;;;6292967;28;20021;-76
2023/03/31 14:20:25;;;;;;;9.50;3.20;;;;;;;;;;6290910;28;20028;-76
2023/03/31 14:23:32;;;;;;;10.98;2.13;;;;;;;;;;6291987;28;20055;-76
2023/03/31 14:26:33;;;;;;;7.75;2.28;;;;;;;;;;6275903;28;20049;-76
2023/03/31 14:29:37;;;;;;;14.30;5.70;;;;;;;;;;6288269;28;20063;-76
2023/03/31 14:32:37;;;;;;;16.30;5.65;;;;;;;;;;6293469;28;20122;-76
2023/03/31 14:35:41;;;;;;;21.40;8.80;;;;;;;;;;6283640;28;20021;-76
2023/03/31 14:38:42;;;;;;;34.50;16.00;;;;;;;;;;6282653;28;20058;-76
2023/03/31 14:41:44;;;;;;;24.45;10.75;;;;;;;;;;6282093;28;20036;-76
2023/03/31 14:44:46;;;;;;;35.30;15.82;;;;;;;;;;6288977;28;20053;-76
2023/03/31 14:47:54;;;;;;;8.88;3.83;;;;;;;;;;6286498;28;20017;-76
2023/03/31 14:51:00;;;;;;;22.30;8.82;;;;;;;;;;6273253;28;20036;-76
2023/03/31 14:54:01;;;;;;;11.63;4.63;;;;;;;;;;6286922;28;20025;-75
2023/03/31 14:57:01;;;;;;;12.27;5.10;;;;;;;;;;6287620;28;20031;-76
2023/03/31 15:00:06;;;;;;;8.60;4.03;;;;;;;;;;6288516;28;20032;-75
2023/03/31 15:03:07;;;;;;;10.57;2.80;;;;;;;;;;6292895;28;20025;-76
2023/03/31 15:06:09;;;;;;;12.93;4.20;;;;;;;;;;6292005;28;20024;-76
2023/03/31 15:09:14;;;;;;;10.82;5.38;;;;;;;;;;6284454;28;20028;-76
2023/03/31 15:12:14;;;;;;;12.93;4.32;;;;;;;;;;6279925;28;20021;-76
2023/03/31 15:15:16;;;;;;;16.13;3.83;;;;;;;;;;6283009;28;20020;-76
2023/03/31 15:18:17;;;;;;;10.48;4.70;;;;;;;;;;6288817;28;20032;-76
2023/03/31 15:21:22;;;;;;;12.07;4.80;;;;;;;;;;6290952;28;20662;-76
2023/03/31 15:24:22;;;;;;;10.98;4.00;;;;;;;;;;6292335;28;20066;-76
2023/03/31 15:27:34;;;;;;;8.00;3.27;;;;;;;;;;6293086;28;20032;-76
2023/03/31 15:30:34;;;;;;;10.38;3.80;;;;;;;;;;6285247;28;20482;-76
2023/03/31 15:33:39;;;;;;;8.40;4.33;;;;;;;;;;6288753;28;20035;-76
2023/03/31 15:36:41;;;;;;;15.40;4.45;;;;;;;;;;6291544;28;20029;-77
2023/03/31 15:39:44;;;;;;;10.75;4.28;;;;;;;;;;6289632;28;20086;-77
2023/03/31 15:42:45;;;;;;;10.95;4.32;;;;;;;;;;6287665;28;20039;-77
2023/03/31 15:45:48;;;;;;;56.70;23.95;;;;;;;;;;6286703;28;20039;-77
2023/03/31 15:48:51;;;;;;;16.52;8.10;;;;;;;;;;6290921;28;20024;-77
2023/03/31 15:51:53;;;;;;;20.55;8.88;;;;;;;;;;6289562;28;20111;-77
2023/03/31 15:54:53;;;;;;;44.30;20.60;;;;;;;;;;6283321;28;20376;-76
2023/03/31 15:57:55;;;;;;;66.80;28.43;;;;;;;;;;6271162;28;20080;-76
2023/03/31 16:01:03;;;;;;;39.83;19.38;;;;;;;;;;6284591;28;20059;-76
2023/03/31 16:04:08;;;;;;;14.32;9.23;;;;;;;;;;6289030;28;20086;-76
2023/03/31 16:07:15;;;;;;;22.58;9.75;;;;;;;;;;6288854;28;20021;-76
2023/03/31 16:10:17;;;;;;;22.13;8.85;;;;;;;;;;6278070;28;20122;-76
2023/03/31 16:13:22;;;;;;;13.25;6.47;;;;;;;;;;6287758;28;20455;-76
2023/03/31 16:16:24;;;;;;;13.80;5.35;;;;;;;;;;6289289;28;20021;-76
2023/03/31 16:19:26;;;;;;;14.82;7.22;;;;;;;;;;6277779;28;20029;-76
2023/03/31 16:22:30;;;;;;;13.18;5.38;;;;;;;;;;6287574;28;20020;-76
2023/03/31 16:25:37;;;;;;;18.45;8.82;;;;;;;;;;6290200;28;20047;-76
2023/03/31 16:28:37;;;;;;;20.45;8.68;;;;;;;;;;6283851;28;20070;-76
2023/03/31 16:31:39;;;;;;;20.50;8.50;;;;;;;;;;6290876;28;20475;-76
2023/03/31 16:34:52;;;;;;;25.45;12.40;;;;;;;;;;6287502;28;20043;-76
2023/03/31 16:37:53;;;;;;;32.85;18.25;;;;;;;;;;6291576;28;20027;-76
2023/03/31 16:40:55;;;;;;;28.90;17.03;;;;;;;;;;6287478;28;20024;-76
2023/03/31 16:43:55;;;;;;;32.80;18.75;;;;;;;;;;6263954;28;20065;-76
2023/03/31 16:46:55;;;;;;;24.30;13.17;;;;;;;;;;6285121;28;20016;-76
2023/03/31 16:49:55;;;;;;;31.45;13.25;;;;;;;;;;6281852;28;20023;-76
2023/03/31 16:52:56;;;;;;;25.87;12.97;;;;;;;;;;6292265;28;20017;-76
2023/03/31 16:55:56;;;;;;;29.80;16.13;;;;;;;;;;6285362;28;20025;-76
2023/03/31 16:58:56;;;;;;;88.50;47.40;;;;;;;;;;6288994;28;20021;-76
2023/03/31 17:01:56;;;;;;;53.47;30.27;;;;;;;;;;6256387;28;20024;-76
2023/03/31 17:04:57;;;;;;;27.70;13.67;;;;;;;;;;6280001;28;20058;-76
2023/03/31 17:07:57;;;;;;;26.10;11.37;;;;;;;;;;6285663;28;20029;-76
2023/03/31 17:11:01;;;;;;;20.57;9.23;;;;;;;;;;6286395;28;20081;-76
2023/03/31 17:14:02;;;;;;;21.20;11.05;;;;;;;;;;6283437;28;20040;-76
2023/03/31 17:17:03;;;;;;;18.25;8.52;;;;;;;;;;6283928;28;20040;-76
2023/03/31 17:20:06;;;;;;;15.38;6.90;;;;;;;;;;6282238;28;20467;-76
2023/03/31 17:23:07;;;;;;;12.73;8.02;;;;;;;;;;6273722;28;20501;-76
2023/03/31 17:26:14;;;;;;;12.83;5.57;;;;;;;;;;6279152;28;20044;-75
2023/03/31 17:29:14;;;;;;;29.00;13.57;;;;;;;;;;6289922;28;20530;-75
2023/03/31 17:32:15;;;;;;;34.67;16.33;;;;;;;;;;6276135;28;20020;-75
2023/03/31 17:35:19;;;;;;;23.57;10.30;;;;;;;;;;6282774;28;20028;-75
2023/03/31 17:38:21;;;;;;;19.30;7.53;;;;;;;;;;6285871;28;20029;-75
2023/03/31 17:41:21;;;;;;;18.98;9.82;;;;;;;;;;6291250;28;20482;-75
2023/03/31 17:44:21;;;;;;;21.53;8.80;;;;;;;;;;6290395;28;20032;-75
2023/03/31 17:47:22;;;;;;;21.67;9.30;;;;;;;;;;6273608;28;20497;-76
2023/03/31 17:50:24;;;;;;;18.50;9.60;;;;;;;;;;6287854;28;20019;-76
2023/03/31 17:53:24;;;;;;;21.40;10.40;;;;;;;;;;6284620;28;20032;-76
2023/03/31 17:56:24;;;;;;;23.47;10.70;;;;;;;;;;6282872;28;20016;-76
2023/03/31 17:59:25;;;;;;;51.00;29.40;;;;;;;;;;6278016;28;20094;-76
2023/03/31 18:02:26;;;;;;;32.97;17.30;;;;;;;;;;6279153;28;20028;-76
2023/03/31 18:05:26;;;;;;;41.10;21.57;;;;;;;;;;6277944;28;20056;-76